Time;durP1;ratioP1;P1;durP2;ratioP2;P2;SDS_P1;SDS_P2;PMS_P1;PMS_P2;Temp;Humidity;BMP_temperature;BMP_pressure;BME280_temperature;BME280_humidity;BME280_pressure;Samples;Min_cycle;Max_cycle;Signal;HPM_P1;HPM_P2
2021/10/08 00:02:16;;;;;;;4.37;3.83;;;8.20;99.90;;;;;;5014329;28;20507;-59
2021/10/08 00:04:43;;;;;;;4.83;3.40;;;8.30;99.90;;;;;;5014266;28;20492;-59
2021/10/08 00:07:10;;;;;;;8.07;3.37;;;8.40;99.90;;;;;;5019281;28;20483;-59
2021/10/08 00:09:38;;;;;;;4.90;3.30;;;8.40;99.90;;;;;;5033685;28;20502;-59
2021/10/08 00:12:05;;;;;;;4.10;3.67;;;8.40;99.90;;;;;;5033079;28;20533;-59
2021/10/08 00:14:34;;;;;;;3.77;3.37;;;8.40;99.90;;;;;;5016706;28;20457;-59
2021/10/08 00:17:01;;;;;;;5.17;3.63;;;8.40;99.90;;;;;;5033489;28;21244;-59
2021/10/08 00:19:28;;;;;;;5.50;3.70;;;8.20;99.90;;;;;;5033736;28;20452;-59
2021/10/08 00:21:55;;;;;;;5.70;3.67;;;8.20;99.90;;;;;;5033021;28;21205;-59
2021/10/08 00:24:22;;;;;;;5.20;3.60;;;8.30;99.90;;;;;;5033758;28;20502;-59
2021/10/08 00:26:49;;;;;;;4.00;3.40;;;8.30;99.90;;;;;;5033219;28;20492;-59
2021/10/08 00:29:16;;;;;;;9.63;4.23;;;8.40;99.90;;;;;;5032843;28;20934;-59
2021/10/08 00:31:45;;;;;;;5.40;4.10;;;8.40;99.90;;;;;;5033294;28;20877;-58
2021/10/08 00:34:12;;;;;;;4.50;3.70;;;8.40;99.90;;;;;;5033085;28;20946;-58
2021/10/08 00:36:39;;;;;;;4.90;3.90;;;8.30;99.90;;;;;;5033105;28;20526;-59
2021/10/08 00:39:06;;;;;;;5.10;4.10;;;8.30;99.90;;;;;;5033430;28;20456;-59
2021/10/08 00:41:33;;;;;;;4.73;3.53;;;8.20;99.90;;;;;;5032263;28;20453;-58
2021/10/08 00:44:00;;;;;;;6.80;4.27;;;8.20;99.90;;;;;;5033153;28;20509;-59
2021/10/08 00:46:27;;;;;;;4.50;3.90;;;8.20;99.90;;;;;;5032469;28;20587;-59
2021/10/08 00:48:56;;;;;;;4.63;4.10;;;8.20;99.90;;;;;;5032831;28;20867;-58
2021/10/08 00:51:26;;;;;;;4.90;3.73;;;8.10;99.90;;;;;;5033047;28;20575;-59
2021/10/08 00:53:53;;;;;;;4.50;3.70;;;8.10;99.90;;;;;;5032790;28;20514;-59
2021/10/08 00:56:21;;;;;;;4.60;4.03;;;8.20;99.90;;;;;;5032659;28;20546;-59
2021/10/08 00:58:49;;;;;;;6.60;4.70;;;8.10;99.90;;;;;;5032010;28;20877;-59
2021/10/08 01:01:17;;;;;;;4.67;3.87;;;8.20;99.90;;;;;;5032432;28;20487;-59
2021/10/08 01:03:44;;;;;;;4.30;3.50;;;8.20;99.90;;;;;;5032672;28;20507;-59
2021/10/08 01:06:13;;;;;;;4.30;3.50;;;8.20;99.90;;;;;;5032668;28;20484;-59
2021/10/08 01:08:40;;;;;;;4.50;3.90;;;8.20;99.90;;;;;;5032795;28;20459;-59
2021/10/08 01:11:07;;;;;;;3.70;3.33;;;8.10;99.90;;;;;;5032193;28;20448;-59
2021/10/08 01:13:34;;;;;;;5.63;3.33;;;8.10;99.90;;;;;;5028021;28;20499;-59
2021/10/08 01:16:01;;;;;;;4.53;3.70;;;8.10;99.90;;;;;;5014466;28;20461;-59
2021/10/08 01:18:28;;;;;;;5.03;3.40;;;8.10;99.90;;;;;;5012994;28;20498;-59
2021/10/08 01:20:57;;;;;;;4.97;3.90;;;8.10;99.90;;;;;;5012650;28;20442;-59
2021/10/08 01:23:24;;;;;;;3.70;3.40;;;8.10;99.90;;;;;;5025919;28;20452;-59
2021/10/08 01:25:51;;;;;;;4.97;3.40;;;8.10;99.90;;;;;;5031782;28;20994;-59
2021/10/08 01:28:20;;;;;;;5.30;3.30;;;8.00;99.90;;;;;;5031798;28;20995;-59
2021/10/08 01:30:47;;;;;;;3.77;3.40;;;8.00;99.90;;;;;;5028345;28;20456;-59
2021/10/08 01:33:14;;;;;;;4.27;3.30;;;8.00;99.90;;;;;;5032082;28;20453;-58
2021/10/08 01:35:41;;;;;;;6.10;3.70;;;8.00;99.90;;;;;;5031866;28;20514;-59
2021/10/08 01:38:09;;;;;;;4.67;3.73;;;7.90;99.90;;;;;;5031864;28;20529;-59
2021/10/08 01:40:36;;;;;;;5.63;3.63;;;7.50;99.90;;;;;;5032199;28;20579;-59
2021/10/08 01:43:03;;;;;;;3.93;3.60;;;7.50;99.90;;;;;;5031821;28;20448;-58
2021/10/08 01:45:34;;;;;;;3.63;3.30;;;7.50;99.90;;;;;;5031640;28;20476;-58
2021/10/08 01:48:01;;;;;;;4.67;3.33;;;7.60;99.90;;;;;;5031798;28;20497;-59
2021/10/08 01:50:28;;;;;;;7.13;3.63;;;7.60;99.90;;;;;;5031552;28;20452;-59
2021/10/08 01:52:55;;;;;;;6.00;3.67;;;7.70;99.90;;;;;;5031902;28;20452;-59
2021/10/08 01:55:23;;;;;;;3.70;3.30;;;7.70;99.90;;;;;;5032053;28;20808;-59
2021/10/08 01:57:50;;;;;;;4.60;3.40;;;7.60;99.90;;;;;;5031541;28;20475;-59
2021/10/08 02:00:17;;;;;;;3.53;3.20;;;7.60;99.90;;;;;;5031751;28;20448;-60
2021/10/08 02:02:44;;;;;;;4.43;3.43;;;7.60;99.90;;;;;;5030862;28;20936;-59
2021/10/08 02:05:11;;;;;;;4.40;3.70;;;7.60;99.90;;;;;;5031451;28;20960;-59
2021/10/08 02:07:38;;;;;;;6.13;3.27;;;7.60;99.90;;;;;;5032044;28;20472;-59
2021/10/08 02:10:06;;;;;;;5.50;4.33;;;7.60;99.90;;;;;;5031665;28;20453;-58
2021/10/08 02:12:35;;;;;;;4.77;4.00;;;7.60;99.90;;;;;;5031089;28;20472;-60
2021/10/08 02:15:03;;;;;;;5.00;3.90;;;7.70;99.90;;;;;;5031330;28;20506;-58
2021/10/08 02:17:30;;;;;;;4.80;4.27;;;7.70;99.90;;;;;;5031332;28;20503;-59
2021/10/08 02:19:57;;;;;;;4.67;3.80;;;7.80;99.90;;;;;;5031768;28;20506;-58
2021/10/08 02:22:24;;;;;;;4.50;3.67;;;7.80;99.90;;;;;;5031603;28;20510;-59
2021/10/08 02:24:51;;;;;;;4.47;3.70;;;7.80;99.90;;;;;;5031712;28;20487;-59
2021/10/08 02:27:18;;;;;;;5.70;3.83;;;7.80;99.90;;;;;;5030004;28;20913;-59
2021/10/08 02:29:47;;;;;;;5.20;3.90;;;7.80;99.90;;;;;;5031188;28;20554;-58
2021/10/08 02:32:14;;;;;;;4.97;4.30;;;7.80;99.90;;;;;;5031431;28;20452;-59
2021/10/08 02:34:41;;;;;;;4.97;3.57;;;7.90;99.90;;;;;;5031402;28;20448;-58
2021/10/08 02:37:08;;;;;;;5.00;4.00;;;8.00;99.90;;;;;;5031368;28;20518;-59
2021/10/08 02:39:35;;;;;;;4.23;3.50;;;7.90;99.90;;;;;;5029742;28;20499;-59
2021/10/08 02:42:02;;;;;;;6.10;3.80;;;7.80;99.90;;;;;;5030902;28;20456;-60
2021/10/08 02:44:29;;;;;;;4.43;3.70;;;7.70;99.90;;;;;;5031199;28;20451;-59
2021/10/08 02:46:57;;;;;;;5.50;3.27;;;7.70;99.90;;;;;;5031417;28;20495;-59
2021/10/08 02:49:24;;;;;;;4.63;3.43;;;7.80;99.90;;;;;;5031448;28;20452;-59
2021/10/08 02:51:51;;;;;;;4.20;3.40;;;7.70;99.90;;;;;;5032754;28;21008;-59
2021/10/08 02:54:18;;;;;;;4.30;3.40;;;7.70;99.90;;;;;;5035110;28;20536;-60
2021/10/08 02:56:45;;;;;;;5.17;3.77;;;7.70;99.90;;;;;;5034922;28;20903;-59
2021/10/08 02:59:12;;;;;;;2.93;2.73;;;7.60;99.90;;;;;;5034908;28;20510;-59
2021/10/08 03:01:39;;;;;;;6.10;3.77;;;7.60;99.90;;;;;;5035005;28;20866;-59
2021/10/08 03:04:07;;;;;;;7.13;3.80;;;7.60;99.90;;;;;;5034839;28;20878;-59
2021/10/08 03:06:34;;;;;;;8.37;3.60;;;7.50;99.90;;;;;;5035088;28;20491;-59
2021/10/08 03:09:01;;;;;;;3.80;3.40;;;7.50;99.90;;;;;;5034484;28;20509;-59
2021/10/08 03:11:28;;;;;;;2.97;2.67;;;7.50;99.90;;;;;;5034187;28;20452;-60
2021/10/08 03:13:55;;;;;;;5.50;3.40;;;7.50;99.90;;;;;;5027776;28;20451;-59
2021/10/08 03:16:22;;;;;;;3.30;3.00;;;7.60;99.90;;;;;;5033945;28;21051;-61
2021/10/08 03:18:49;;;;;;;4.30;3.33;;;7.50;99.90;;;;;;5035065;28;20531;-60
2021/10/08 03:21:17;;;;;;;4.20;3.57;;;7.60;99.90;;;;;;5034507;28;20448;-59
2021/10/08 03:23:44;;;;;;;4.67;3.17;;;7.60;99.90;;;;;;5034356;28;20452;-60
2021/10/08 03:26:11;;;;;;;5.60;3.70;;;7.40;99.90;;;;;;5034694;28;20488;-60
2021/10/08 03:28:38;;;;;;;4.47;3.10;;;7.20;99.90;;;;;;5034283;28;20827;-60
2021/10/08 03:31:05;;;;;;;4.00;3.33;;;7.20;99.90;;;;;;5034716;28;20510;-60
2021/10/08 03:33:33;;;;;;;4.23;3.47;;;7.30;99.90;;;;;;5034660;28;20518;-61
2021/10/08 03:36:00;;;;;;;3.60;3.17;;;7.40;99.90;;;;;;5034669;28;20488;-60
2021/10/08 03:38:31;;;;;;;4.90;3.37;;;7.30;99.90;;;;;;5033906;28;20456;-61
2021/10/08 03:41:08;;;;;;;3.57;3.00;;;7.30;99.90;;;;;;5033567;28;21035;-60
2021/10/08 03:43:36;;;;;;;2.87;2.67;;;7.40;99.90;;;;;;5034458;28;20448;-60
2021/10/08 03:46:07;;;;;;;5.17;3.10;;;7.40;99.90;;;;;;5034110;28;20480;-60
2021/10/08 03:51:15;;;;;;;3.90;3.00;;;7.30;99.90;;;;;;5020929;28;20514;-59
2021/10/08 03:53:43;;;;;;;3.63;2.97;;;7.40;99.90;;;;;;5033946;28;20498;-59
2021/10/08 03:56:10;;;;;;;2.90;2.70;;;7.50;99.90;;;;;;5034294;28;20443;-58
2021/10/08 03:58:37;;;;;;;8.43;3.43;;;7.50;99.90;;;;;;5034312;28;20499;-59
2021/10/08 04:01:04;;;;;;;4.13;3.30;;;7.50;99.90;;;;;;5033429;28;20517;-59
2021/10/08 04:03:31;;;;;;;4.70;3.13;;;7.60;99.90;;;;;;5032720;28;20510;-58
2021/10/08 04:05:58;;;;;;;4.20;3.50;;;7.60;99.90;;;;;;5033698;28;20505;-58
2021/10/08 04:08:26;;;;;;;4.53;3.27;;;7.60;99.90;;;;;;5033876;28;20528;-59
2021/10/08 04:10:54;;;;;;;5.13;3.97;;;7.60;99.90;;;;;;5033477;28;20451;-59
2021/10/08 04:13:21;;;;;;;5.20;3.60;;;7.50;99.90;;;;;;5033739;28;20453;-59
2021/10/08 04:15:48;;;;;;;7.93;3.23;;;7.40;99.90;;;;;;5033640;28;20456;-58
2021/10/08 04:18:15;;;;;;;5.00;3.23;;;7.40;99.90;;;;;;5029996;28;20476;-59
2021/10/08 04:20:44;;;;;;;4.27;3.37;;;7.40;99.90;;;;;;5033640;28;20448;-59
2021/10/08 04:23:11;;;;;;;3.50;2.97;;;7.50;99.90;;;;;;5033534;28;20448;-59
2021/10/08 04:25:38;;;;;;;4.77;3.67;;;7.60;99.90;;;;;;5023038;28;20962;-59
2021/10/08 04:28:07;;;;;;;4.10;3.70;;;7.60;99.90;;;;;;5033647;28;20915;-57
2021/10/08 04:30:35;;;;;;;5.43;3.73;;;7.60;99.90;;;;;;5017746;28;20449;-57
2021/10/08 04:33:03;;;;;;;4.00;3.60;;;7.70;99.90;;;;;;5030848;28;20515;-57
2021/10/08 04:35:33;;;;;;;5.00;3.47;;;7.70;99.90;;;;;;5033472;28;20474;-57
2021/10/08 04:38:00;;;;;;;5.10;3.30;;;7.70;99.90;;;;;;5033300;28;20469;-57
2021/10/08 04:40:28;;;;;;;4.77;3.60;;;7.70;99.90;;;;;;5033225;28;20460;-58
2021/10/08 04:42:55;;;;;;;5.33;4.00;;;7.80;99.90;;;;;;5014197;28;20533;-57
2021/10/08 04:45:24;;;;;;;4.57;3.40;;;7.70;99.90;;;;;;5013578;28;20467;-58
2021/10/08 04:47:51;;;;;;;4.50;3.50;;;7.80;99.90;;;;;;5018766;28;20542;-57
2021/10/08 04:50:18;;;;;;;7.97;4.20;;;7.80;99.90;;;;;;5033039;28;20455;-57
2021/10/08 04:52:46;;;;;;;6.20;4.73;;;7.80;99.90;;;;;;5033279;28;20936;-57
2021/10/08 04:55:13;;;;;;;4.63;4.00;;;7.80;99.90;;;;;;5032728;28;20452;-57
2021/10/08 04:57:40;;;;;;;6.33;4.50;;;7.80;99.90;;;;;;5018703;28;20471;-57
2021/10/08 05:00:08;;;;;;;4.10;3.53;;;7.80;99.90;;;;;;5022042;28;20452;-58
2021/10/08 05:02:37;;;;;;;4.43;3.77;;;7.80;99.90;;;;;;5033133;28;20530;-57
2021/10/08 05:05:05;;;;;;;9.13;4.60;;;7.90;99.90;;;;;;5032843;28;20508;-57
2021/10/08 05:07:32;;;;;;;6.17;5.00;;;7.80;99.90;;;;;;5032856;28;20574;-57
2021/10/08 05:09:59;;;;;;;5.03;4.53;;;7.70;99.90;;;;;;5032707;28;20942;-57
2021/10/08 05:12:26;;;;;;;6.03;5.03;;;7.70;99.90;;;;;;5042939;28;20521;-57
2021/10/08 05:14:54;;;;;;;7.70;4.97;;;7.80;99.90;;;;;;5045957;28;20448;-57
2021/10/08 05:17:21;;;;;;;6.50;4.90;;;7.80;99.90;;;;;;5032687;28;20468;-57
2021/10/08 05:19:50;;;;;;;6.40;4.50;;;7.80;99.90;;;;;;5032800;28;20452;-57
2021/10/08 05:22:17;;;;;;;5.33;4.30;;;7.70;99.90;;;;;;5024656;28;21015;-57
2021/10/08 05:24:44;;;;;;;6.13;4.77;;;7.70;99.90;;;;;;5019864;28;20798;-57
2021/10/08 05:27:11;;;;;;;7.03;4.60;;;7.70;99.90;;;;;;5012920;28;20493;-57
2021/10/08 05:29:38;;;;;;;7.60;4.80;;;7.60;99.90;;;;;;5032306;28;20871;-58
2021/10/08 05:32:06;;;;;;;4.60;4.10;;;7.60;99.90;;;;;;5032276;28;20452;-57
2021/10/08 05:34:35;;;;;;;6.10;4.37;;;7.60;99.90;;;;;;5032352;28;20459;-57
2021/10/08 05:37:04;;;;;;;4.47;3.90;;;7.70;99.90;;;;;;5032213;28;20595;-58
2021/10/08 05:39:32;;;;;;;6.13;4.60;;;7.60;99.90;;;;;;5028341;28;20472;-61
2021/10/08 05:41:59;;;;;;;8.17;4.97;;;7.60;99.90;;;;;;5027868;28;20461;-57
2021/10/08 05:44:26;;;;;;;6.87;4.83;;;7.60;99.90;;;;;;5031306;28;21018;-57
2021/10/08 05:46:54;;;;;;;7.03;4.60;;;7.60;99.90;;;;;;5030214;28;20488;-57
2021/10/08 05:49:21;;;;;;;8.13;5.73;;;7.60;99.90;;;;;;5026960;28;20839;-58
2021/10/08 05:51:48;;;;;;;7.57;5.90;;;7.70;99.90;;;;;;5031123;28;20444;-57
2021/10/08 05:54:17;;;;;;;8.33;6.53;;;7.70;99.90;;;;;;5022526;28;20970;-56
2021/10/08 05:56:44;;;;;;;9.43;5.60;;;7.80;99.90;;;;;;5020273;28;20537;-57
2021/10/08 05:59:11;;;;;;;6.77;5.30;;;7.70;99.90;;;;;;5017256;28;20449;-57
2021/10/08 06:01:42;;;;;;;10.17;6.80;;;7.70;99.90;;;;;;5028421;28;20895;-57
2021/10/08 06:04:09;;;;;;;10.67;6.50;;;7.80;99.90;;;;;;5029613;28;21026;-57
2021/10/08 06:06:36;;;;;;;8.53;6.13;;;7.70;99.90;;;;;;5030099;28;20472;-57
2021/10/08 06:09:04;;;;;;;10.40;6.00;;;7.80;99.90;;;;;;5029340;28;20472;-57
2021/10/08 06:11:33;;;;;;;9.33;5.47;;;7.90;99.90;;;;;;5028549;28;20472;-57
2021/10/08 06:14:00;;;;;;;10.37;6.10;;;7.90;99.90;;;;;;5029853;28;20958;-57
2021/10/08 06:16:27;;;;;;;5.40;4.60;;;7.90;99.90;;;;;;5030688;28;20476;-57
2021/10/08 06:18:56;;;;;;;7.00;4.97;;;7.80;99.90;;;;;;5027903;28;20480;-57
2021/10/08 06:21:23;;;;;;;6.73;5.80;;;7.80;99.90;;;;;;5027616;28;20552;-57
2021/10/08 06:23:50;;;;;;;9.17;5.63;;;7.90;99.90;;;;;;5029647;28;20472;-57
2021/10/08 06:26:17;;;;;;;8.73;5.10;;;8.00;99.90;;;;;;5022003;28;20444;-57
2021/10/08 06:28:46;;;;;;;8.00;5.40;;;8.10;99.90;;;;;;5030733;28;21024;-56
2021/10/08 06:31:15;;;;;;;6.03;5.00;;;8.10;99.90;;;;;;5030116;28;20528;-57
2021/10/08 06:33:42;;;;;;;8.13;5.20;;;8.30;99.90;;;;;;5031315;28;20518;-57
2021/10/08 06:36:09;;;;;;;7.17;5.40;;;8.30;99.90;;;;;;5031202;28;20452;-57
2021/10/08 06:38:36;;;;;;;7.50;5.27;;;8.40;99.90;;;;;;5031460;28;20502;-57
2021/10/08 06:41:03;;;;;;;6.43;4.60;;;8.40;99.90;;;;;;5031348;28;20451;-57
2021/10/08 06:43:32;;;;;;;6.83;5.00;;;8.40;99.90;;;;;;5026536;28;20872;-58
2021/10/08 06:46:02;;;;;;;5.10;4.23;;;8.50;99.90;;;;;;5022173;28;20452;-58
2021/10/08 06:48:29;;;;;;;5.43;3.70;;;8.70;99.90;;;;;;5020021;28;20530;-57
2021/10/08 06:50:57;;;;;;;13.20;4.20;;;8.80;99.90;;;;;;5033467;28;20448;-58
2021/10/08 06:53:24;;;;;;;5.90;4.50;;;8.70;99.90;;;;;;5035783;28;20992;-58
2021/10/08 06:55:51;;;;;;;5.53;4.00;;;8.70;99.90;;;;;;5037103;28;20453;-58
2021/10/08 06:58:18;;;;;;;6.07;3.70;;;8.80;99.90;;;;;;5034130;28;20465;-57
2021/10/08 07:00:45;;;;;;;4.90;3.70;;;8.90;99.90;;;;;;5027205;28;20449;-57
2021/10/08 07:03:14;;;;;;;4.40;4.00;;;8.90;99.90;;;;;;5029703;28;20472;-58
2021/10/08 07:05:41;;;;;;;5.90;4.47;;;8.90;99.90;;;;;;5031394;28;20448;-57
2021/10/08 07:08:08;;;;;;;4.80;3.73;;;9.00;99.90;;;;;;5031027;28;20533;-58
2021/10/08 07:10:37;;;;;;;5.17;3.27;;;9.20;99.90;;;;;;5031211;28;20453;-58
2021/10/08 07:13:03;;;;;;;4.77;3.80;;;9.20;99.90;;;;;;5030665;28;20452;-58
2021/10/08 07:15:31;;;;;;;5.57;4.20;;;9.40;99.90;;;;;;5022421;28;20511;-58
2021/10/08 07:17:58;;;;;;;7.23;3.67;;;9.40;99.90;;;;;;5030694;28;20472;-57
2021/10/08 07:20:29;;;;;;;4.53;3.70;;;9.50;99.90;;;;;;5030905;28;20456;-57
2021/10/08 07:22:58;;;;;;;4.80;3.40;;;9.60;99.90;;;;;;5028716;28;20515;-57
2021/10/08 07:25:27;;;;;;;3.87;3.47;;;9.80;99.90;;;;;;5040920;28;20519;-57
2021/10/08 07:27:55;;;;;;;5.73;3.53;;;10.00;99.90;;;;;;5041502;28;20562;-56
2021/10/08 07:30:22;;;;;;;3.10;2.80;;;10.20;99.90;;;;;;5028375;28;20499;-56
2021/10/08 07:32:50;;;;;;;8.50;3.40;;;10.20;99.90;;;;;;5028403;28;20468;-57
2021/10/08 07:35:17;;;;;;;4.63;3.83;;;10.30;99.90;;;;;;5028918;28;20468;-57
2021/10/08 07:37:46;;;;;;;4.43;3.13;;;10.50;99.90;;;;;;5030943;28;20460;-57
2021/10/08 07:40:13;;;;;;;3.80;3.50;;;10.60;99.90;;;;;;5034629;28;20448;-56
2021/10/08 07:42:41;;;;;;;7.23;3.63;;;10.80;99.90;;;;;;5032692;28;20449;-57
2021/10/08 07:45:12;;;;;;;4.43;3.70;;;10.80;99.90;;;;;;5024950;28;20893;-57
2021/10/08 07:47:39;;;;;;;4.73;3.90;;;10.80;99.90;;;;;;5029006;28;20997;-57
2021/10/08 07:50:08;;;;;;;4.67;3.80;;;10.90;99.90;;;;;;5032121;28;20458;-57
2021/10/08 07:52:35;;;;;;;6.03;3.70;;;11.10;99.90;;;;;;5022160;28;20526;-56
2021/10/08 07:55:04;;;;;;;4.27;3.10;;;11.20;99.90;;;;;;5034108;28;20490;-57
2021/10/08 07:57:31;;;;;;;5.20;3.43;;;11.10;99.90;;;;;;5033626;28;20472;-57
2021/10/08 07:59:58;;;;;;;3.70;3.30;;;11.20;99.90;;;;;;5033432;28;20449;-57
2021/10/08 08:02:28;;;;;;;5.93;4.10;;;11.20;99.90;;;;;;5032788;28;20970;-56
2021/10/08 08:04:55;;;;;;;6.23;4.07;;;11.30;99.90;;;;;;5031698;28;20449;-57
2021/10/08 08:07:22;;;;;;;5.87;3.67;;;11.60;99.90;;;;;;5033561;28;20476;-56
2021/10/08 08:09:49;;;;;;;9.17;4.27;;;11.70;99.90;;;;;;5031852;28;20445;-56
2021/10/08 08:12:18;;;;;;;4.30;3.40;;;11.80;99.90;;;;;;5033642;28;20449;-56
2021/10/08 08:14:45;;;;;;;3.87;3.30;;;11.90;99.90;;;;;;5034006;28;20889;-56
2021/10/08 08:17:13;;;;;;;5.33;3.60;;;12.20;99.90;;;;;;5033652;28;20909;-57
2021/10/08 08:19:43;;;;;;;6.20;3.93;;;12.40;99.90;;;;;;5033723;28;20881;-57
2021/10/08 08:22:10;;;;;;;6.63;3.53;;;12.50;99.90;;;;;;5033351;28;20453;-56
2021/10/08 08:24:37;;;;;;;4.33;3.50;;;12.50;99.90;;;;;;5034004;28;20514;-56
2021/10/08 08:27:04;;;;;;;3.60;3.27;;;12.40;99.90;;;;;;5033682;28;20468;-56
2021/10/08 08:29:32;;;;;;;3.37;3.07;;;12.30;99.90;;;;;;5033664;28;20899;-56
2021/10/08 08:31:59;;;;;;;6.03;3.97;;;12.30;99.90;;;;;;5033548;28;20499;-56
2021/10/08 08:34:27;;;;;;;4.30;3.43;;;12.30;99.90;;;;;;5033712;28;20456;-57
2021/10/08 08:36:54;;;;;;;3.30;3.00;;;12.60;99.90;;;;;;5033057;28;20472;-57
2021/10/08 08:39:21;;;;;;;3.20;2.87;;;13.20;99.90;;;;;;5033465;28;21013;-57
2021/10/08 08:41:49;;;;;;;4.60;2.77;;;13.80;99.90;;;;;;5033277;28;20526;-57
2021/10/08 08:44:16;;;;;;;3.50;3.20;;;14.50;99.90;;;;;;5033603;28;20510;-57
2021/10/08 08:46:45;;;;;;;3.30;2.80;;;15.00;99.90;;;;;;5033385;28;20476;-57
2021/10/08 08:49:12;;;;;;;4.10;3.13;;;15.00;99.90;;;;;;5032626;28;20555;-57
2021/10/08 08:51:39;;;;;;;3.53;3.10;;;15.30;99.90;;;;;;5033053;28;20457;-57
2021/10/08 08:54:07;;;;;;;4.70;2.93;;;15.80;99.90;;;;;;5032697;28;20452;-57
2021/10/08 08:56:36;;;;;;;2.90;2.50;;;15.80;99.90;;;;;;5033016;28;20460;-57
2021/10/08 08:59:05;;;;;;;2.93;2.73;;;16.10;99.90;;;;;;5033287;28;20867;-60
2021/10/08 09:01:33;;;;;;;2.90;2.70;;;16.60;99.90;;;;;;5033015;28;20452;-59
2021/10/08 09:04:03;;;;;;;2.90;2.70;;;16.80;99.90;;;;;;5032968;28;20460;-59
2021/10/08 09:06:33;;;;;;;3.00;2.70;;;17.00;99.90;;;;;;5032880;28;20476;-59
2021/10/08 09:09:11;;;;;;;3.23;2.80;;;17.40;99.90;;;;;;5032815;28;20483;-59
2021/10/08 09:11:39;;;;;;;5.43;2.40;;;17.60;99.90;;;;;;5032058;28;20962;-58
2021/10/08 09:14:20;;;;;;;3.63;3.03;;;17.60;99.90;;;;;;5017757;28;21024;-59
2021/10/08 09:17:06;;;;;;;6.00;3.00;;;17.90;99.90;;;;;;5029930;28;20538;-61
2021/10/08 09:19:54;;;;;;;2.77;2.57;;;18.10;99.90;;;;;;5032874;28;20441;-60
2021/10/08 09:22:24;;;;;;;4.97;3.43;;;18.60;99.90;;;;;;5032621;28;20452;-60
2021/10/08 09:24:51;;;;;;;3.00;2.80;;;18.90;99.90;;;;;;5032631;28;20507;-59
2021/10/08 09:27:20;;;;;;;3.17;2.60;;;18.90;99.90;;;;;;5032040;28;20826;-60
2021/10/08 09:29:49;;;;;;;3.20;2.90;;;19.10;99.90;;;;;;5032073;28;20488;-61
2021/10/08 09:32:17;;;;;;;2.53;2.33;;;18.60;99.90;;;;;;5032354;28;20448;-60
2021/10/08 09:34:44;;;;;;;3.03;2.70;;;18.30;99.90;;;;;;5029436;28;20444;-60
2021/10/08 09:37:14;;;;;;;4.37;2.73;;;18.70;99.90;;;;;;5032033;28;20233;-60
2021/10/08 09:39:42;;;;;;;2.47;2.27;;;18.80;99.90;;;;;;5032180;28;20449;-59
2021/10/08 09:42:12;;;;;;;4.37;2.80;;;19.30;99.90;;;;;;5031316;28;20460;-60
2021/10/08 09:44:45;;;;;;;2.87;2.63;;;19.20;99.90;;;;;;5031928;28;20533;-59
2021/10/08 09:47:14;;;;;;;2.50;2.30;;;19.40;99.90;;;;;;5031683;28;20579;-59
2021/10/08 09:49:43;;;;;;;2.70;2.50;;;19.80;99.90;;;;;;5032007;28;20561;-59
2021/10/08 09:52:25;;;;;;;3.00;2.70;;;19.80;99.90;;;;;;5031383;28;20507;-60
2021/10/08 09:54:53;;;;;;;2.47;2.33;;;19.70;99.90;;;;;;5012181;28;21116;-59
2021/10/08 09:57:21;;;;;;;3.97;2.70;;;19.90;99.90;;;;;;5012141;28;20560;-59
2021/10/08 09:59:49;;;;;;;3.23;2.57;;;19.90;99.90;;;;;;5029857;28;20449;-60
2021/10/08 10:02:16;;;;;;;2.80;2.50;;;20.00;99.90;;;;;;5027308;28;21328;-60
2021/10/08 10:04:48;;;;;;;2.90;2.70;;;20.00;99.90;;;;;;5031813;28;20507;-60
2021/10/08 10:07:17;;;;;;;2.43;2.13;;;20.40;99.90;;;;;;5030929;28;20477;-59
2021/10/08 10:09:46;;;;;;;2.87;2.60;;;20.90;99.90;;;;;;5031589;28;20484;-59
2021/10/08 10:12:14;;;;;;;2.87;2.67;;;21.10;99.90;;;;;;5030406;28;20456;-59
2021/10/08 10:14:45;;;;;;;2.97;2.53;;;20.90;99.90;;;;;;5031566;28;20836;-59
2021/10/08 10:17:14;;;;;;;4.30;2.70;;;20.60;99.90;;;;;;5029574;28;20611;-60
2021/10/08 10:19:45;;;;;;;4.90;2.60;;;20.40;99.90;;;;;;5031603;28;20460;-60
2021/10/08 10:22:15;;;;;;;3.83;2.20;;;20.20;99.90;;;;;;5031434;28;20476;-59
2021/10/08 10:24:43;;;;;;;3.30;2.53;;;20.30;99.90;;;;;;5031292;28;20539;-59
2021/10/08 10:27:15;;;;;;;2.87;2.67;;;20.50;99.90;;;;;;5031348;28;21072;-59
2021/10/08 10:29:44;;;;;;;3.10;2.63;;;20.10;99.90;;;;;;5030835;28;20918;-58
2021/10/08 10:32:15;;;;;;;3.50;2.73;;;20.50;99.90;;;;;;5030627;28;20483;-60
2021/10/08 10:34:42;;;;;;;3.27;3.00;;;20.10;99.90;;;;;;5031000;28;20464;-59
2021/10/08 10:37:10;;;;;;;2.80;2.60;;;19.90;99.90;;;;;;5040028;28;20521;-58
2021/10/08 10:39:38;;;;;;;3.33;2.50;;;19.70;99.90;;;;;;5051166;28;20444;-59
2021/10/08 10:42:17;;;;;;;2.73;2.33;;;19.20;99.90;;;;;;5050977;28;20811;-60
2021/10/08 10:45:19;;;;;;;9.53;2.80;;;18.90;99.90;;;;;;5051173;28;20835;-59
2021/10/08 10:48:08;;;;;;;3.13;2.70;;;19.00;99.90;;;;;;4989255;28;20505;-59
2021/10/08 10:50:47;;;;;;;4.17;3.07;;;18.90;99.90;;;;;;5028155;28;20484;-58
2021/10/08 10:53:14;;;;;;;2.97;2.67;;;19.00;99.90;;;;;;5031278;28;20452;-59
2021/10/08 10:55:42;;;;;;;6.43;2.80;;;18.70;99.90;;;;;;5030756;28;21012;-58
2021/10/08 10:58:16;;;;;;;3.50;3.17;;;18.90;99.90;;;;;;5030294;28;20468;-58
2021/10/08 11:00:51;;;;;;;3.37;3.07;;;18.70;99.90;;;;;;5030271;28;20980;-59
2021/10/08 11:03:31;;;;;;;3.17;2.73;;;18.50;99.90;;;;;;5031152;28;20437;-58
2021/10/08 11:06:13;;;;;;;3.43;3.00;;;18.60;99.90;;;;;;5031294;28;20444;-59
2021/10/08 11:09:20;;;;;;;4.90;3.00;;;18.20;99.90;;;;;;5030308;28;20480;-58
2021/10/08 11:12:07;;;;;;;3.30;3.00;;;17.60;99.90;;;;;;4988933;28;20446;-58
2021/10/08 11:14:36;;;;;;;3.93;2.90;;;17.40;99.90;;;;;;4993083;28;20466;-58
2021/10/08 11:17:46;;;;;;;4.17;3.67;;;17.60;99.90;;;;;;5019572;28;20464;-58
2021/10/08 11:20:45;;;;;;;4.30;2.97;;;17.80;99.90;;;;;;5034144;28;20539;-60
2021/10/08 11:23:23;;;;;;;4.60;3.10;;;17.50;99.90;;;;;;5034478;28;20488;-58
2021/10/08 11:25:52;;;;;;;3.80;3.37;;;17.10;99.90;;;;;;5034316;28;20675;-59
2021/10/08 11:28:27;;;;;;;3.80;3.20;;;17.10;99.90;;;;;;5034056;28;20531;-58
2021/10/08 11:30:57;;;;;;;3.30;3.00;;;17.00;99.90;;;;;;5034513;28;20498;-59
2021/10/08 11:33:42;;;;;;;4.87;3.43;;;17.00;99.90;;;;;;5034592;28;20456;-59
2021/10/08 11:36:21;;;;;;;4.43;3.70;;;16.80;99.90;;;;;;5034375;28;20460;-58
2021/10/08 11:38:52;;;;;;;4.43;3.33;;;17.00;99.90;;;;;;5034748;28;20445;-59
2021/10/08 11:41:22;;;;;;;3.90;3.50;;;17.20;99.90;;;;;;5033697;28;20540;-58
2021/10/08 11:43:56;;;;;;;4.73;3.57;;;17.50;99.90;;;;;;5034704;28;20479;-58
2021/10/08 11:46:38;;;;;;;5.73;4.10;;;17.40;99.90;;;;;;5034201;28;20480;-58
2021/10/08 11:49:22;;;;;;;6.33;3.50;;;17.50;99.90;;;;;;5028931;28;21037;-58
2021/10/08 11:51:56;;;;;;;5.37;3.57;;;17.30;99.90;;;;;;5014207;28;20457;-58
2021/10/08 11:54:23;;;;;;;3.63;3.33;;;17.10;99.90;;;;;;5028249;28;20958;-58
2021/10/08 11:57:01;;;;;;;5.03;3.40;;;17.40;99.90;;;;;;5034072;28;20476;-59
2021/10/08 11:59:29;;;;;;;3.67;3.00;;;17.60;99.90;;;;;;5033695;28;20542;-58
2021/10/08 12:02:12;;;;;;;4.80;3.37;;;17.40;99.90;;;;;;5033637;28;21105;-58
2021/10/08 12:04:39;;;;;;;4.27;3.63;;;17.40;99.90;;;;;;5033639;28;20962;-58
2021/10/08 12:07:08;;;;;;;4.53;3.23;;;17.20;99.90;;;;;;5033591;28;20552;-58
2021/10/08 12:09:35;;;;;;;4.33;3.80;;;16.90;99.90;;;;;;5033183;28;21020;-58
2021/10/08 12:12:09;;;;;;;4.40;3.70;;;16.90;99.90;;;;;;5033698;28;20445;-59
2021/10/08 12:14:44;;;;;;;4.80;3.97;;;17.10;99.90;;;;;;5033872;28;20862;-59
2021/10/08 12:17:13;;;;;;;4.87;3.87;;;17.30;99.90;;;;;;5033395;28;20555;-60
2021/10/08 12:19:40;;;;;;;5.37;3.53;;;17.10;99.90;;;;;;5031810;28;20539;-59
2021/10/08 12:22:11;;;;;;;3.70;3.37;;;17.00;99.90;;;;;;5021693;28;20455;-58
2021/10/08 12:24:38;;;;;;;4.77;3.70;;;17.00;99.90;;;;;;5032409;28;20946;-58
2021/10/08 12:27:06;;;;;;;3.60;3.30;;;17.20;99.90;;;;;;5033478;28;20475;-58
2021/10/08 12:29:41;;;;;;;4.90;3.53;;;17.10;99.90;;;;;;5033142;28;20534;-58
2021/10/08 12:32:13;;;;;;;4.10;3.33;;;17.30;99.90;;;;;;5032769;28;20501;-58
2021/10/08 12:34:42;;;;;;;3.90;3.40;;;17.50;99.90;;;;;;5032725;28;20460;-58
2021/10/08 12:37:11;;;;;;;4.80;3.37;;;17.70;99.90;;;;;;5032973;28;20522;-58
2021/10/08 12:39:40;;;;;;;3.97;2.97;;;17.80;99.90;;;;;;5033277;28;20444;-58
2021/10/08 12:42:17;;;;;;;3.53;2.83;;;17.90;99.90;;;;;;5032872;28;20464;-58
2021/10/08 12:44:50;;;;;;;5.43;3.50;;;18.00;99.90;;;;;;5033341;28;20453;-58
2021/10/08 12:47:24;;;;;;;4.70;3.43;;;18.00;99.90;;;;;;5032880;28;20491;-58
2021/10/08 12:49:53;;;;;;;3.83;3.33;;;18.00;99.90;;;;;;5032518;28;20574;-58
2021/10/08 12:52:33;;;;;;;3.67;3.37;;;17.80;99.90;;;;;;5032646;28;20449;-59
2021/10/08 12:55:07;;;;;;;3.90;3.40;;;17.90;99.90;;;;;;5013448;28;20449;-58
2021/10/08 12:57:34;;;;;;;6.30;3.83;;;18.00;99.90;;;;;;5014994;28;20470;-59
2021/10/08 13:00:02;;;;;;;5.30;3.07;;;18.00;99.90;;;;;;5032391;28;20456;-58
2021/10/08 13:02:46;;;;;;;3.70;3.13;;;18.20;99.90;;;;;;5032311;28;20459;-58
2021/10/08 13:05:15;;;;;;;6.50;4.30;;;18.10;99.90;;;;;;5033151;28;20882;-58
2021/10/08 13:07:42;;;;;;;5.83;3.97;;;18.00;99.90;;;;;;5032818;28;20998;-58